Flight Track Log - Related Links

Times and Time Zones

All times are in EDT time to prevent confusion due to time zone crossing. See the EJA122 flight status page for this flight to view local times or setup timezone preferences in your user account.

Time Position Orientation Groundspeed Altitude Reporting Facility
EDT Latitude Longitude Course Direction KTS MPH feet Rate Location/Type
Sun 07:08:29 PM 42.7794 -84.6678 271° West 230 265 4,500  Level Chicago Center
Sun 07:09:31 PM 42.7800 -84.7550 271° West 231 266 7,400 2,613 Climbing Chicago Center
Sun 07:10:33 PM 42.7825 -84.8592 272° West 265 305 9,900 1,548 Climbing Chicago Center
Sun 07:11:35 PM 42.7839 -84.9847 271° West 333 383 10,600 1,306 Climbing Chicago Center
Sun 07:12:37 PM 42.7842 -85.1092 270° West 332 382 12,600 1,984 Climbing Chicago Center
Sun 07:13:39 PM 42.7858 -85.2322 271° West 325 374 14,700 1,887 Climbing Chicago Center
Sun 07:14:41 PM 42.7581 -85.3469 252° West 321 369 16,500 1,452 Climbing Chicago Center
Sun 07:15:43 PM 42.7247 -85.4847 252° West 318 366 17,700 1,065 Climbing Chicago Center
Sun 07:16:45 PM 42.6961 -85.6028 252° West 325 374 18,700 1,016 Climbing Chicago Center
Sun 07:17:47 PM 42.6656 -85.7239 251° West 334 384 19,800 1,016 Climbing Chicago Center
Sun 07:18:49 PM 42.6347 -85.8506 252° West 348 400 20,800 919 Climbing Chicago Center
Sun 07:19:51 PM 42.6025 -85.9786 251° West 354 407 21,700 1,016 Climbing Chicago Center
Sun 07:20:53 PM 42.5719 -86.1067 252° West 356 410 22,900 1,065 Climbing Chicago Center
Sun 07:21:55 PM 42.5386 -86.2331 250° West 355 409 23,900 1,113 Climbing Chicago Center
Sun 07:22:57 PM 42.4997 -86.3883 251° West 362 417 25,200 1,113 Climbing Chicago Center
Sun 07:23:59 PM 42.4664 -86.5169 251° West 361 415 26,200 1,016 Climbing Chicago Center
Sun 07:25:01 PM 42.4392 -86.6478 254° West 364 419 27,300 968 Climbing Chicago Center
Sun 07:26:03 PM 42.4339 -86.7806 267° West 365 420 28,200 919 Climbing Chicago Center
Sun 07:27:05 PM 42.4247 -86.9147 265° West 361 415 29,200 1,113 Climbing Chicago Center
Sun 07:28:07 PM 42.3783 -87.0722 248° West 378 435 30,500 1,113 Climbing Chicago Center
Sun 07:29:09 PM 42.3419 -87.2092 250° West 386 444 31,500 726 Climbing Chicago Center
Sun 07:30:11 PM 42.3031 -87.3467 249° West 394 453 32,000 242 Climbing Chicago Center
Sun 07:31:13 PM 42.2628 -87.4917 249° West 412 474 32,000  Level Chicago Center
Sun 07:32:15 PM 42.2219 -87.6369 249° West 417 480 32,000  Level Chicago Center
Sun 07:33:17 PM 42.1728 -87.8094 249° West 415 478 32,000 387 Level Chicago Center
Sun 07:34:19 PM 42.1331 -87.9508 249° West 409 471 32,800 823 Climbing Chicago Center
Sun 07:35:21 PM 42.0939 -88.0892 249° West 402 463 33,700 581 Climbing Chicago Center
Sun 07:36:23 PM 42.0533 -88.2233 248° West 393 452 34,000 145 Climbing Chicago Center
Sun 07:37:25 PM 42.0047 -88.3928 249° West 406 467 34,000  Level Chicago Center
Sun 07:38:27 PM 41.9619 -88.5356 248° West 415 478 34,000  Level Chicago Center
Sun 07:39:29 PM 41.9208 -88.6781 249° West 415 478 34,000  Level Chicago Center
Sun 07:40:31 PM 41.8794 -88.8192 249° West 412 474 34,000  Level Chicago Center
Sun 07:41:33 PM 41.8364 -88.9619 248° West 416 479 34,000  Level Chicago Center
Sun 07:42:35 PM 41.7856 -89.1328 248° West 416 479 34,000  Level Chicago Center
Sun 07:43:38 PM 41.7425 -89.2733 248° West 413 475 34,000  Level Chicago Center
Sun 07:44:40 PM 41.7008 -89.4144 248° West 412 474 34,000  Level Chicago Center
Sun 07:45:42 PM 41.6583 -89.5539 248° West 410 472 34,000  Level Chicago Center
Sun 07:46:44 PM 41.6164 -89.6950 248° West 415 478 34,000  Level Chicago Center
Sun 07:47:46 PM 41.5650 -89.8636 248° West 413 475 34,000  Level Chicago Center
Sun 07:48:48 PM 41.5211 -90.0042 247° West 412 474 34,000  Level Chicago Center
Sun 07:49:50 PM 41.4778 -90.1447 248° West 412 474 34,000  Level Chicago Center
Sun 07:50:52 PM 41.4339 -90.2856 247° West 413 475 34,000  Level Chicago Center
Sun 07:51:54 PM 41.3894 -90.4258 247° West 413 475 34,000  Level Chicago Center
Sun 07:52:56 PM 41.3464 -90.5650 248° West 412 474 34,000  Level Chicago Center
Sun 07:53:58 PM 41.2939 -90.7339 248° West 412 474 34,000  Level Chicago Center
Sun 07:55:00 PM 41.2522 -90.8747 249° West 411 473 34,000  Level Chicago Center
Sun 07:56:03 PM 41.2114 -91.0136 249° West 408 470 34,000  Level Chicago Center
Sun 07:57:05 PM 41.1694 -91.1531 248° West 408 470 34,000  Level Chicago Center
Sun 07:58:07 PM 41.1281 -91.2917 248° West 406 467 34,000  Level Chicago Center
Sun 07:59:09 PM 41.0778 -91.4597 248° West 409 471 34,000  Level Chicago Center
Sun 08:00:11 PM 41.0353 -91.5997 248° West 410 472 34,000  Level Chicago Center
Sun 08:01:13 PM 40.9933 -91.7389 248° West 412 474 34,000  Level Chicago Center
Sun 08:02:15 PM 40.9497 -91.8797 248° West 416 479 34,000  Level Chicago Center
Sun 08:03:17 PM 40.9069 -92.0200 248° West 415 478 34,000  Level Chicago Center
Sun 08:04:19 PM 40.8547 -92.1886 248° West 418 481 34,000  Level Chicago Center
Sun 08:05:21 PM 40.8111 -92.3281 248° West 416 479 34,000  Level Chicago Center
Sun 08:06:23 PM 40.7672 -92.4661 247° West 414 476 34,000  Level Chicago Center
Sun 08:07:25 PM 40.7236 -92.6064 248° West 418 481 34,000  Level Chicago Center
Sun 08:08:27 PM 40.6708 -92.7728 247° West 418 481 34,000  Level Chicago Center
Sun 08:09:29 PM 40.6272 -92.9117 248° West 418 481 34,000  Level Chicago Center
Sun 08:10:31 PM 40.5817 -93.0506 247° West 419 482 34,000  Level Chicago Center
Sun 08:11:33 PM 40.5375 -93.1897 247° West 419 482 34,000  Level Chicago Center
Sun 08:12:35 PM 40.4928 -93.3294 247° West 420 483 34,000  Level Chicago Center
Sun 08:13:37 PM 40.4383 -93.4964 247° West 421 484 34,000  Level Chicago Center
Sun 08:14:39 PM 40.3917 -93.6378 247° West 425 489 34,000  Level Chicago Center
Sun 08:15:41 PM 40.3453 -93.7767 246° West 423 487 34,000  Level Kansas City Center
Sun 08:16:43 PM 40.2994 -93.9194 247° West 426 490 34,000  Level Kansas City Center
Sun 08:17:45 PM 40.2522 -94.0608 246° West 428 493 34,000  Level Kansas City Center
Sun 08:18:47 PM 40.1997 -94.2181 246° West 428 493 34,000  Level Kansas City Center
Sun 08:19:49 PM 40.1456 -94.3756 246° West 427 491 34,000  Level Kansas City Center
Sun 08:20:50 PM 40.1000 -94.5139 247° West 432 497 34,000  Level Kansas City Center
Sun 08:21:52 PM 40.0464 -94.6742 246° West 432 497 34,000 -290 Level Kansas City Center
Sun 08:22:54 PM 39.9994 -94.8111 246° West 434 499 33,400 -823 Descending Kansas City Center
Sun 08:23:56 PM 39.9442 -94.9692 246° West 430 495 32,300 -1,161 Descending Kansas City Center
Sun 08:24:58 PM 39.8881 -95.1014 241° Southwest 436 502 31,000 -1,463 Descending Kansas City Center
Sun 08:25:59 PM 39.8244 -95.2550 242° Southwest 435 501 29,300 -1,512 Descending Kansas City Center
Sun 08:27:01 PM 39.7697 -95.3881 242° Southwest 437 503 27,900 -1,355 Descending Kansas City Center
Sun 08:28:03 PM 39.7144 -95.5197 241° Southwest 436 502 26,500 -1,500 Descending Kansas City Center
Sun 08:29:05 PM 39.6519 -95.6694 242° Southwest 427 491 24,800 -1,220 Descending Kansas City Center
Sun 08:30:06 PM 39.5972 -95.7997 241° Southwest 431 496 24,000 -390 Descending Kansas City Center
Sun 08:31:08 PM 39.5314 -95.9522 241° Southwest 433 498 24,000  Level Kansas City Center
Sun 08:32:10 PM 39.4769 -96.0806 241° Southwest 428 493 24,000  Level Kansas City Center
Sun 08:33:12 PM 39.4164 -96.2203 241° Southwest 428 493 24,000  Level Kansas City Center
Sun 08:34:14 PM 39.3583 -96.3533 241° Southwest 426 490 24,000 -488 Level Kansas City Center
Sun 08:35:15 PM 39.2933 -96.5072 241° Southwest 425 489 23,000 -1,902 Descending Kansas City Center
Sun 08:36:17 PM 39.2400 -96.6289 241° Southwest 413 475 20,100 -3,387 Descending Kansas City Center
Sun 08:37:19 PM 39.1808 -96.7656 241° Southwest 396 456 16,000 -3,854 Descending Kansas City Center
Sun 08:38:20 PM 39.1319 -96.8825 242° Southwest 351 404 12,200 -2,780 Descending Kansas City Center
Sun 08:39:22 PM 39.0917 -96.9742 241° Southwest 306 352 10,300 -1,984 Descending Kansas City Center
Sun 08:40:24 PM 39.0525 -97.0622 240° Southwest 276 318 8,100 -2,081 Descending Kansas City Center
Sun 08:41:26 PM 39.0131 -97.1531 241° Southwest 279 321 6,000 -1,512 Descending Kansas City Center
Sun 08:42:27 PM 38.9742 -97.2406 240° Southwest 270 311 5,000 -488 Descending Kansas City Center
Sun 08:43:29 PM 38.9342 -97.3311 240° Southwest 277 319 5,000 -290 Level Kansas City Center
Sun 08:44:31 PM 38.8978 -97.4142 241° Southwest 277 319 4,400 -488 Descending Kansas City Center
Sun 08:45:32 PM 38.8658 -97.4847 240° Southwest 217 250 4,000 -244 Descending Kansas City Center
Sun 08:46:34 PM 38.8339 -97.5361 231° Southwest 180 207 3,900 -439 Descending Kansas City Center
Sun 08:47:35 PM 38.7875 -97.5708 210° Southwest 194 223 3,100 -439 Descending Kansas City Center
Sun 08:48:37 PM 38.7406 -97.5881 196° South 170 196 3,000 -387 Descending Kansas City Center
Sun 08:49:39 PM 38.7375 -97.6378 266° West 160 184 2,300 -683 Descending Kansas City Center
Sun 08:50:40 PM 38.7717 -97.6472 348° North 144 166 1,600 -689 Descending Kansas City Center

Login

Don't have an account? Register now (free) for customized features, flight alerts, and more!